createdAt,value
2022-08-04T00:00:31.211Z,1.30
2022-08-04T00:01:05.843Z,1.40
2022-08-04T00:01:44.373Z,1.30
2022-08-04T00:02:22.242Z,1.30
2022-08-04T00:03:02.736Z,1.30
2022-08-04T00:03:45.975Z,1.50
2022-08-04T00:04:25.614Z,1.53
2022-08-04T00:05:01.834Z,1.40
2022-08-04T00:05:48.476Z,1.13
2022-08-04T00:06:29.342Z,1.43
2022-08-04T00:07:10.811Z,1.40
2022-08-04T00:07:51.522Z,1.43
2022-08-04T00:08:38.063Z,1.50
2022-08-04T00:09:14.606Z,1.67
2022-08-04T00:09:50.630Z,1.70
2022-08-04T00:10:26.140Z,1.23
2022-08-04T00:11:00.559Z,1.50
2022-08-04T00:11:34.089Z,1.50
2022-08-04T00:12:10.482Z,1.27
2022-08-04T00:12:45.542Z,1.23
2022-08-04T00:13:24.377Z,1.57
2022-08-04T00:14:03.931Z,1.47
2022-08-04T00:14:38.867Z,1.40
2022-08-04T00:15:15.069Z,1.40
2022-08-04T00:15:55.206Z,1.87
2022-08-04T00:16:32.729Z,1.43
2022-08-04T00:17:07.618Z,1.33
2022-08-04T00:17:44.733Z,1.37
2022-08-04T00:18:19.318Z,1.50
2022-08-04T00:18:56.530Z,1.40
2022-08-04T00:19:34.891Z,1.30
2022-08-04T00:20:09.911Z,1.40
2022-08-04T00:20:42.787Z,1.50
2022-08-04T00:21:18.698Z,1.37
2022-08-04T00:21:54.175Z,1.47
2022-08-04T00:22:31.120Z,1.60
2022-08-04T00:23:03.640Z,1.40
2022-08-04T00:24:11.136Z,1.40
2022-08-04T00:24:33.364Z,1.47
2022-08-04T00:25:06.758Z,1.40
2022-08-04T00:25:40.743Z,1.40
2022-08-04T00:26:15.734Z,1.83
2022-08-04T00:26:48.581Z,1.60
2022-08-04T00:27:21.092Z,1.67
2022-08-04T00:27:56.380Z,1.70
2022-08-04T00:28:31.447Z,1.37
2022-08-04T00:29:03.910Z,1.60
2022-08-04T00:29:38.986Z,1.33
2022-08-04T00:30:11.702Z,1.43
2022-08-04T00:30:44.164Z,1.80
2022-08-04T00:31:19.895Z,1.33
2022-08-04T00:32:13.242Z,1.50
2022-08-04T00:32:48.596Z,1.60
2022-08-04T00:33:21.391Z,1.63
2022-08-04T00:33:54.014Z,1.50
2022-08-04T00:34:30.796Z,1.57
2022-08-04T00:35:03.894Z,1.40
2022-08-04T00:35:36.887Z,1.70
2022-08-04T00:36:12.434Z,1.70
2022-08-04T00:36:45.036Z,1.70
2022-08-04T00:37:17.898Z,1.47
2022-08-04T00:37:52.937Z,1.50
2022-08-04T00:38:25.955Z,1.40
2022-08-04T00:38:59.296Z,1.80
2022-08-04T00:39:35.249Z,1.60
2022-08-04T00:40:17.063Z,1.20
2022-08-04T00:41:04.172Z,1.40
2022-08-04T00:41:55.498Z,1.27
2022-08-04T00:42:58.425Z,1.80
2022-08-04T00:43:38.476Z,1.50
2022-08-04T00:44:23.729Z,1.60
2022-08-04T00:45:08.175Z,1.10
2022-08-04T00:46:17.017Z,1.43
2022-08-04T00:47:05.227Z,1.27
2022-08-04T00:47:59.256Z,1.63
2022-08-04T00:48:42.393Z,1.60
2022-08-04T00:49:33.669Z,1.80
2022-08-04T00:50:11.863Z,1.60
2022-08-04T00:50:46.394Z,1.50
2022-08-04T00:51:32.027Z,1.53
2022-08-04T00:52:31.715Z,1.70
2022-08-04T00:53:09.617Z,1.37
2022-08-04T00:53:58.526Z,1.50
2022-08-04T00:54:46.979Z,1.40
2022-08-04T00:55:32.472Z,1.40
2022-08-04T00:56:35.388Z,1.30
2022-08-04T00:57:29.962Z,1.33
2022-08-04T00:58:36.443Z,1.40
2022-08-04T00:59:24.715Z,1.50
2022-08-04T01:00:08.607Z,1.53
2022-08-04T01:00:45.941Z,1.57
2022-08-04T01:01:41.115Z,1.50
2022-08-04T01:02:32.514Z,1.40
2022-08-04T01:03:10.914Z,1.60
2022-08-04T01:03:51.034Z,1.50
2022-08-04T01:04:32.862Z,1.10
2022-08-04T01:05:07.095Z,1.87
2022-08-04T01:05:48.686Z,1.83
2022-08-04T01:06:32.788Z,1.33
2022-08-04T01:07:17.506Z,1.60
2022-08-04T01:08:01.843Z,1.50
2022-08-04T01:08:53.320Z,1.37
2022-08-04T01:09:31.759Z,1.27
2022-08-04T01:10:08.006Z,1.63
2022-08-04T01:10:51.668Z,1.60
2022-08-04T01:11:32.656Z,1.20
2022-08-04T01:13:00.255Z,1.50
2022-08-04T01:13:47.098Z,1.50
2022-08-04T01:14:32.983Z,1.70
2022-08-04T01:15:08.106Z,1.30
2022-08-04T01:16:00.115Z,1.63
2022-08-04T01:16:35.947Z,1.57
2022-08-04T01:17:21.653Z,1.50
2022-08-04T01:18:05.562Z,1.40
2022-08-04T01:18:46.967Z,1.30
2022-08-04T01:19:37.709Z,1.30
2022-08-04T01:20:11.672Z,1.70
2022-08-04T01:20:54.120Z,1.50
2022-08-04T01:22:04.528Z,2.00
2022-08-04T01:23:09.379Z,1.40
2022-08-04T01:23:53.991Z,1.50
2022-08-04T01:24:44.811Z,1.47
2022-08-04T01:25:34.087Z,1.67
2022-08-04T01:26:57.856Z,1.43
2022-08-04T01:27:47.830Z,1.33
2022-08-04T01:28:30.175Z,1.60
2022-08-04T01:29:15.028Z,1.40
2022-08-04T01:29:51.071Z,1.50
2022-08-04T01:30:28.215Z,1.50
2022-08-04T01:31:12.932Z,1.47
2022-08-04T01:31:55.460Z,1.43
2022-08-04T01:32:35.393Z,1.60
2022-08-04T01:33:10.024Z,1.40
2022-08-04T01:34:02.974Z,1.40
2022-08-04T01:34:48.975Z,1.40
2022-08-04T01:35:46.636Z,1.50
2022-08-04T01:36:21.197Z,1.30
2022-08-04T01:36:59.869Z,1.57
2022-08-04T01:37:44.626Z,1.60
2022-08-04T01:38:22.492Z,1.50
2022-08-04T01:38:55.271Z,1.43
2022-08-04T01:39:42.907Z,1.23
2022-08-04T01:40:19.364Z,1.67
2022-08-04T01:40:54.007Z,1.47
2022-08-04T01:41:32.860Z,1.53
2022-08-04T01:42:09.696Z,1.47
2022-08-04T01:42:43.637Z,1.70
2022-08-04T01:43:19.507Z,1.30
2022-08-04T01:43:54.470Z,1.73
2022-08-04T01:44:31.906Z,1.40
2022-08-04T01:45:09.608Z,1.60
2022-08-04T01:45:42.172Z,1.70
2022-08-04T01:46:16.909Z,1.50
2022-08-04T01:46:50.692Z,1.77
2022-08-04T01:47:25.930Z,1.53
2022-08-04T01:47:58.750Z,1.70
2022-08-04T01:48:31.460Z,1.40
2022-08-04T01:49:06.987Z,1.60
2022-08-04T01:49:41.080Z,1.30
2022-08-04T01:50:14.439Z,1.50
2022-08-04T01:50:53.014Z,1.87
2022-08-04T01:51:25.971Z,1.60
2022-08-04T01:51:58.730Z,1.53
2022-08-04T01:52:35.392Z,1.63
2022-08-04T01:53:08.035Z,1.63
2022-08-04T01:53:42.056Z,1.60
2022-08-04T01:54:16.459Z,1.70
2022-08-04T01:54:53.900Z,1.27
2022-08-04T01:55:55.275Z,1.40
2022-08-04T01:56:24.562Z,1.60
2022-08-04T01:56:58.574Z,1.37
2022-08-04T01:57:37.882Z,1.93
2022-08-04T01:58:14.419Z,1.40
2022-08-04T01:58:46.944Z,1.70
2022-08-04T01:59:21.058Z,1.43
2022-08-04T02:00:01.366Z,1.67
2022-08-04T02:00:38.322Z,1.83
2022-08-04T02:01:14.866Z,1.87
2022-08-04T02:01:47.649Z,1.33
2022-08-04T02:02:23.034Z,1.50
2022-08-04T02:02:59.177Z,1.63
2022-08-04T02:04:22.029Z,1.50
2022-08-04T02:04:24.664Z,1.63
2022-08-04T02:04:59.700Z,1.60
2022-08-04T02:06:03.991Z,1.60
2022-08-04T02:06:32.129Z,1.70
2022-08-04T02:07:19.931Z,1.63
2022-08-04T02:08:04.578Z,1.50
2022-08-04T02:08:47.657Z,1.63
2022-08-04T02:09:24.594Z,1.60
2022-08-04T02:10:05.066Z,1.40
2022-08-04T02:10:53.401Z,1.50
2022-08-04T02:11:25.732Z,1.40
2022-08-04T02:12:04.312Z,1.63
2022-08-04T02:12:56.740Z,1.27
2022-08-04T02:13:35.556Z,1.47
2022-08-04T02:14:37.964Z,1.43
2022-08-04T02:15:16.394Z,1.53
2022-08-04T02:15:59.058Z,1.67
2022-08-04T02:16:39.003Z,1.50
2022-08-04T02:17:12.932Z,1.43
2022-08-04T02:17:55.172Z,1.27
2022-08-04T02:18:32.565Z,1.60
2022-08-04T02:19:17.623Z,1.47
2022-08-04T02:20:16.398Z,1.40
2022-08-04T02:20:52.555Z,1.80
2022-08-04T02:21:26.450Z,1.57
2022-08-04T02:22:06.859Z,1.40
2022-08-04T02:22:45.970Z,1.60
2022-08-04T02:23:25.698Z,1.60
2022-08-04T02:24:02.359Z,1.50
2022-08-04T02:24:43.615Z,1.37
2022-08-04T02:25:19.930Z,1.60
2022-08-04T02:26:00.065Z,1.33
2022-08-04T02:26:34.536Z,1.37
2022-08-04T02:27:07.441Z,1.83
2022-08-04T02:27:59.090Z,1.53
2022-08-04T02:28:40.582Z,1.40
2022-08-04T02:29:20.324Z,1.47
2022-08-04T02:29:57.398Z,1.57
2022-08-04T02:30:37.614Z,1.57
2022-08-04T02:31:20.056Z,1.70
2022-08-04T02:31:57.952Z,1.60
2022-08-04T02:32:31.422Z,1.57
2022-08-04T02:33:07.638Z,1.33
2022-08-04T02:33:43.323Z,1.50
2022-08-04T02:34:22.492Z,1.20
2022-08-04T02:35:01.402Z,2.20
2022-08-04T02:35:36.971Z,1.60
2022-08-04T02:36:14.210Z,1.70
2022-08-04T02:36:48.884Z,1.50
2022-08-04T02:37:22.277Z,1.80
2022-08-04T02:38:04.611Z,1.80
2022-08-04T02:38:55.206Z,1.77
2022-08-04T02:39:48.515Z,1.50
2022-08-04T02:40:22.283Z,1.50
2022-08-04T02:40:56.427Z,1.87
2022-08-04T02:41:35.397Z,1.47
2022-08-04T02:42:07.921Z,1.57
2022-08-04T02:42:42.674Z,1.70
2022-08-04T02:43:18.646Z,1.70
2022-08-04T02:44:11.219Z,1.40
2022-08-04T02:44:46.723Z,1.73
2022-08-04T02:45:20.033Z,1.60
2022-08-04T02:45:56.862Z,1.80
2022-08-04T02:46:32.766Z,1.20
2022-08-04T02:47:06.211Z,1.70
2022-08-04T02:48:08.171Z,1.67
2022-08-04T02:48:35.682Z,1.50
2022-08-04T02:49:09.665Z,1.63
2022-08-04T02:49:45.581Z,1.53
2022-08-04T02:50:28.553Z,1.73
2022-08-04T02:51:01.790Z,1.70
2022-08-04T02:51:44.594Z,1.30
2022-08-04T02:52:17.266Z,1.43
2022-08-04T02:52:50.947Z,1.47
2022-08-04T02:53:26.214Z,1.80
2022-08-04T02:54:00.198Z,1.50
2022-08-04T02:54:34.736Z,1.63
2022-08-04T02:55:10.701Z,1.80
2022-08-04T02:55:51.046Z,1.50
2022-08-04T02:56:31.172Z,1.90
2022-08-04T02:57:08.219Z,1.93
2022-08-04T02:57:41.250Z,1.80
2022-08-04T02:58:15.743Z,1.73
2022-08-04T02:58:55.266Z,1.77
2022-08-04T02:59:29.897Z,1.60
2022-08-04T03:00:11.891Z,1.67
2022-08-04T03:00:49.583Z,1.80
2022-08-04T03:01:25.431Z,1.70
2022-08-04T03:02:01.669Z,1.60
2022-08-04T03:02:42.843Z,1.60
2022-08-04T03:03:22.858Z,1.50
2022-08-04T03:04:26.294Z,1.80
2022-08-04T03:05:04.312Z,1.87
2022-08-04T03:05:51.884Z,1.97
2022-08-04T03:06:57.239Z,1.40
2022-08-04T03:08:04.400Z,1.80
2022-08-04T03:09:18.487Z,1.53
2022-08-04T03:10:30.440Z,1.60
2022-08-04T03:11:41.672Z,1.83
2022-08-04T03:12:33.227Z,1.73
2022-08-04T03:13:31.562Z,2.17
2022-08-04T03:14:25.583Z,1.90
2022-08-04T03:15:27.847Z,1.90
2022-08-04T03:16:31.876Z,2.03
2022-08-04T03:17:52.614Z,2.50
2022-08-04T03:19:00.053Z,2.20
2022-08-04T03:20:00.536Z,2.23
2022-08-04T03:20:59.772Z,2.93
2022-08-04T03:21:57.064Z,2.20
2022-08-04T03:23:14.174Z,2.10
2022-08-04T03:24:12.919Z,2.00
2022-08-04T03:25:28.262Z,2.47
2022-08-04T03:26:23.814Z,2.03
2022-08-04T03:27:15.431Z,2.20
2022-08-04T03:28:07.486Z,2.03
2022-08-04T03:29:00.750Z,2.30
2022-08-04T03:30:06.835Z,2.47
2022-08-04T03:30:58.579Z,2.27
2022-08-04T03:31:54.617Z,2.30
2022-08-04T03:32:59.410Z,2.20
2022-08-04T03:33:48.587Z,1.93
2022-08-04T03:34:41.169Z,2.13
2022-08-04T03:35:58.360Z,1.67
2022-08-04T03:36:56.677Z,1.97
2022-08-04T03:37:44.975Z,1.87
2022-08-04T03:38:42.695Z,2.70
2022-08-04T03:39:54.504Z,1.93
2022-08-04T03:40:56.463Z,1.67
2022-08-04T03:41:51.774Z,2.20
2022-08-04T03:43:05.579Z,1.53
2022-08-04T03:43:58.278Z,2.30
2022-08-04T03:45:04.990Z,1.87
2022-08-04T03:46:34.875Z,1.80
2022-08-04T03:47:31.742Z,2.07
2022-08-04T03:48:28.724Z,1.70
2022-08-04T03:49:44.110Z,1.80
2022-08-04T03:50:41.669Z,1.60
2022-08-04T03:51:36.270Z,1.80
2022-08-04T03:52:29.343Z,2.07
2022-08-04T03:53:24.659Z,1.90
2022-08-04T03:54:16.431Z,2.03
2022-08-04T03:55:20.818Z,1.60
2022-08-04T03:56:34.503Z,2.27
2022-08-04T03:57:28.430Z,1.90
2022-08-04T03:58:49.211Z,2.20
2022-08-04T03:59:59.603Z,2.30
2022-08-04T04:00:42.600Z,2.00
2022-08-04T04:02:01.484Z,1.70
2022-08-04T04:02:58.299Z,1.80
2022-08-04T04:03:59.975Z,1.60
2022-08-04T04:04:56.454Z,1.80
2022-08-04T04:06:02.187Z,1.77
2022-08-04T04:07:17.560Z,1.80
2022-08-04T04:08:22.175Z,2.00
2022-08-04T04:09:24.170Z,2.33
2022-08-04T04:10:17.242Z,2.07
2022-08-04T04:11:27.422Z,1.90
2022-08-04T04:12:25.367Z,1.80
2022-08-04T04:13:18.539Z,2.23
2022-08-04T04:14:00.035Z,1.40
2022-08-04T04:14:58.421Z,1.87
2022-08-04T04:15:50.195Z,1.80
2022-08-04T04:16:39.450Z,1.67
2022-08-04T04:17:31.962Z,1.63
2022-08-04T04:18:42.531Z,1.57
2022-08-04T04:19:31.537Z,1.70
2022-08-04T04:20:35.946Z,1.77
2022-08-04T04:21:22.533Z,2.10
2022-08-04T04:22:30.070Z,1.73
2022-08-04T04:23:14.042Z,1.87
2022-08-04T04:24:04.703Z,1.87
2022-08-04T04:24:59.895Z,1.73
2022-08-04T04:25:41.707Z,1.67
2022-08-04T04:26:33.251Z,1.97
2022-08-04T04:27:14.728Z,1.70
2022-08-04T04:28:43.647Z,2.30
2022-08-04T04:29:09.587Z,2.10
2022-08-04T04:30:06.845Z,1.97
2022-08-04T04:30:50.003Z,2.03
2022-08-04T04:31:34.620Z,1.60
2022-08-04T04:32:22.987Z,2.33
2022-08-04T04:33:21.347Z,1.90
2022-08-04T04:34:02.517Z,2.10
2022-08-04T04:34:49.933Z,1.57
2022-08-04T04:35:34.368Z,1.90
2022-08-04T04:36:15.512Z,1.53
2022-08-04T04:37:04.354Z,1.60
2022-08-04T04:38:00.598Z,2.00
2022-08-04T04:38:45.940Z,1.80
2022-08-04T04:39:31.155Z,1.80
2022-08-04T04:40:18.577Z,1.93
2022-08-04T04:41:05.987Z,1.60
2022-08-04T04:42:05.479Z,2.10
2022-08-04T04:43:01.656Z,1.60
2022-08-04T04:43:54.638Z,1.67
2022-08-04T04:44:56.922Z,1.97
2022-08-04T04:45:32.161Z,2.00
2022-08-04T04:46:11.081Z,2.03
2022-08-04T04:46:54.515Z,2.70
2022-08-04T04:47:43.056Z,1.97
2022-08-04T04:48:36.851Z,2.00
2022-08-04T04:49:20.828Z,1.90
2022-08-04T04:49:59.918Z,2.10
2022-08-04T04:50:44.134Z,2.13
2022-08-04T04:51:21.043Z,1.80
2022-08-04T04:52:04.069Z,1.43
2022-08-04T04:52:41.039Z,2.07
2022-08-04T04:53:20.811Z,2.20
2022-08-04T04:54:00.851Z,2.13
2022-08-04T04:54:35.507Z,2.00
2022-08-04T04:55:14.711Z,1.77
2022-08-04T04:56:02.774Z,2.10
2022-08-04T04:56:41.567Z,1.73
2022-08-04T04:57:17.784Z,2.10
2022-08-04T04:57:55.377Z,1.90
2022-08-04T04:58:29.698Z,2.03
2022-08-04T04:59:03.517Z,1.87
2022-08-04T04:59:42.421Z,2.10
2022-08-04T05:00:15.801Z,1.67
2022-08-04T05:01:11.389Z,1.70
2022-08-04T05:02:07.799Z,1.90
2022-08-04T05:03:15.364Z,2.07
2022-08-04T05:04:09.576Z,1.67
2022-08-04T05:05:04.674Z,2.13
2022-08-04T05:06:07.668Z,2.00
2022-08-04T05:06:54.854Z,2.13
2022-08-04T05:07:53.229Z,2.70
2022-08-04T05:08:46.855Z,2.43
2022-08-04T05:09:32.781Z,2.53
2022-08-04T05:10:17.518Z,2.40
2022-08-04T05:11:08.311Z,2.43
2022-08-04T05:11:55.283Z,2.40
2022-08-04T05:14:31.786Z,2.67
2022-08-04T05:14:38.963Z,1.93
2022-08-04T05:14:46.972Z,2.40
2022-08-04T05:15:25.619Z,2.80
2022-08-04T05:16:02.012Z,2.67
2022-08-04T05:16:40.420Z,2.67
2022-08-04T05:17:17.808Z,2.60
2022-08-04T05:17:55.788Z,2.30
2022-08-04T05:18:31.418Z,2.73
2022-08-04T05:19:18.445Z,2.30
2022-08-04T05:20:02.117Z,2.80
2022-08-04T05:20:38.802Z,2.00
2022-08-04T05:21:21.890Z,2.20
2022-08-04T05:22:04.714Z,2.90
2022-08-04T05:22:40.019Z,2.30
2022-08-04T05:23:16.811Z,2.37
2022-08-04T05:23:54.113Z,2.40
2022-08-04T05:24:28.394Z,2.50
2022-08-04T05:25:08.027Z,2.10
2022-08-04T05:25:58.595Z,2.33
2022-08-04T05:26:35.646Z,2.13
2022-08-04T05:27:20.821Z,2.37
2022-08-04T05:28:01.045Z,2.67
2022-08-04T05:28:39.607Z,2.30
2022-08-04T05:29:17.342Z,2.17
2022-08-04T05:29:53.771Z,2.47
2022-08-04T05:30:31.392Z,2.77
2022-08-04T05:31:07.282Z,2.87
2022-08-04T05:31:42.052Z,2.43
2022-08-04T05:32:18.302Z,2.80
2022-08-04T05:32:59.223Z,2.97
2022-08-04T05:33:37.862Z,2.63
2022-08-04T05:34:14.778Z,2.50
2022-08-04T05:34:55.623Z,2.40
2022-08-04T05:35:37.416Z,2.53
2022-08-04T05:36:41.296Z,2.10
2022-08-04T05:37:18.170Z,2.40
2022-08-04T05:38:01.350Z,2.27
2022-08-04T05:38:36.672Z,2.50
2022-08-04T05:39:16.114Z,2.20
2022-08-04T05:39:53.584Z,2.00
2022-08-04T05:40:26.944Z,2.30
2022-08-04T05:41:02.577Z,2.40
2022-08-04T05:41:45.194Z,2.20
2022-08-04T05:42:21.194Z,2.80
2022-08-04T05:42:56.889Z,2.20
2022-08-04T05:43:29.790Z,2.30
2022-08-04T05:44:05.387Z,2.40
2022-08-04T05:44:38.370Z,2.17
2022-08-04T05:45:10.776Z,2.10
2022-08-04T05:45:48.416Z,2.53
2022-08-04T05:46:20.871Z,2.27
2022-08-04T05:46:56.203Z,2.70
2022-08-04T05:47:31.543Z,2.23
2022-08-04T05:48:04.788Z,2.70
2022-08-04T05:48:40.787Z,2.07
2022-08-04T05:49:19.366Z,2.47
2022-08-04T05:50:01.738Z,2.70
2022-08-04T05:50:37.918Z,2.30
2022-08-04T05:51:11.156Z,2.43
2022-08-04T05:51:46.758Z,2.60
2022-08-04T05:52:21.915Z,2.00
2022-08-04T05:52:54.453Z,2.60
2022-08-04T05:53:37.458Z,2.20
2022-08-04T05:54:10.515Z,3.00
2022-08-04T05:54:45.533Z,2.80
2022-08-04T05:55:48.686Z,2.90
2022-08-04T05:56:15.510Z,2.67
2022-08-04T05:56:48.512Z,2.60
2022-08-04T05:57:21.196Z,3.13
2022-08-04T05:57:56.994Z,2.60
2022-08-04T05:58:30.713Z,2.40
2022-08-04T05:59:03.863Z,2.40
2022-08-04T05:59:42.907Z,2.33
2022-08-04T06:00:39.032Z,2.53
2022-08-04T06:01:14.103Z,2.43
2022-08-04T06:01:55.606Z,2.37
2022-08-04T06:02:30.967Z,2.90
2022-08-04T06:03:06.838Z,2.30
2022-08-04T06:03:40.176Z,2.47
2022-08-04T06:04:15.966Z,2.50
2022-08-04T06:04:51.035Z,2.50
2022-08-04T06:05:26.739Z,2.70
2022-08-04T06:05:59.387Z,2.73
2022-08-04T06:06:32.255Z,2.80
2022-08-04T06:07:11.360Z,2.53
2022-08-04T06:08:11.826Z,2.03
2022-08-04T06:08:38.822Z,2.70
2022-08-04T06:09:11.959Z,2.00
2022-08-04T06:09:44.739Z,2.20
2022-08-04T06:10:23.085Z,2.60
2022-08-04T06:11:06.571Z,2.60
2022-08-04T06:12:00.773Z,2.53
2022-08-04T06:12:40.478Z,2.50
2022-08-04T06:13:49.608Z,2.33
2022-08-04T06:14:12.527Z,2.57
2022-08-04T06:14:46.627Z,3.07
2022-08-04T06:15:20.896Z,2.40
2022-08-04T06:16:01.609Z,2.60
2022-08-04T06:16:37.960Z,2.50
2022-08-04T06:18:33.048Z,2.63
2022-08-04T06:18:34.077Z,2.10
2022-08-04T06:19:59.347Z,2.37
2022-08-04T06:20:19.548Z,2.47
2022-08-04T06:20:59.337Z,2.30
2022-08-04T06:21:33.693Z,3.10
2022-08-04T06:22:11.296Z,2.70
2022-08-04T06:22:49.135Z,2.70
2022-08-04T06:23:23.937Z,2.77
2022-08-04T06:24:02.362Z,2.57
2022-08-04T06:24:41.009Z,2.47
2022-08-04T06:25:18.011Z,3.20
2022-08-04T06:25:52.243Z,2.60
2022-08-04T06:26:28.410Z,2.70
2022-08-04T06:27:01.496Z,2.40
2022-08-04T06:27:33.928Z,2.20
2022-08-04T06:28:09.821Z,2.73
2022-08-04T06:28:42.306Z,2.73
2022-08-04T06:29:20.751Z,2.23
2022-08-04T06:29:56.217Z,2.60
2022-08-04T06:30:29.411Z,2.57
2022-08-04T06:32:28.202Z,2.93
2022-08-04T06:32:30.239Z,2.93
2022-08-04T06:33:03.814Z,2.30
2022-08-04T06:33:54.322Z,2.47
2022-08-04T06:34:28.047Z,3.07
2022-08-04T06:35:04.875Z,2.70
2022-08-04T06:35:37.330Z,2.63
2022-08-04T06:36:14.250Z,2.70
2022-08-04T06:36:48.085Z,2.40
2022-08-04T06:37:42.674Z,2.50
2022-08-04T06:38:21.306Z,2.43
2022-08-04T06:38:59.197Z,2.30
2022-08-04T06:39:32.085Z,2.43
2022-08-04T06:40:31.318Z,2.40
2022-08-04T06:41:03.824Z,2.80
2022-08-04T06:41:55.257Z,2.60
2022-08-04T06:42:31.935Z,2.50
2022-08-04T06:43:09.131Z,2.40
2022-08-04T06:43:42.908Z,2.40
2022-08-04T06:44:16.556Z,2.20
2022-08-04T06:44:53.189Z,2.30
2022-08-04T06:45:26.036Z,2.30
2022-08-04T06:46:03.047Z,2.60
2022-08-04T06:46:37.561Z,2.57
2022-08-04T06:47:18.700Z,2.67
2022-08-04T06:47:51.631Z,2.20
2022-08-04T06:48:33.321Z,2.13
2022-08-04T06:49:06.670Z,2.77
2022-08-04T06:49:55.078Z,2.50
2022-08-04T06:51:25.592Z,2.37
2022-08-04T06:51:38.029Z,3.03
2022-08-04T06:52:21.654Z,2.80
2022-08-04T06:52:56.682Z,2.70
2022-08-04T06:53:31.766Z,2.53
2022-08-04T06:54:04.360Z,2.57
2022-08-04T06:54:36.750Z,2.70
2022-08-04T06:55:13.552Z,2.50
2022-08-04T06:55:47.639Z,2.40
2022-08-04T06:56:20.551Z,2.07
2022-08-04T06:56:56.556Z,2.60
2022-08-04T06:57:30.840Z,2.20
2022-08-04T06:58:03.785Z,2.20
2022-08-04T06:58:39.303Z,2.03
2022-08-04T06:59:12.981Z,2.73
2022-08-04T06:59:45.771Z,2.17
2022-08-04T07:00:21.026Z,2.30
2022-08-04T07:00:54.783Z,2.50
2022-08-04T07:01:28.688Z,2.33
2022-08-04T07:02:04.413Z,2.20
2022-08-04T07:02:40.498Z,2.43
2022-08-04T07:03:13.120Z,2.50
2022-08-04T07:03:50.620Z,2.40
2022-08-04T07:04:23.482Z,2.50
2022-08-04T07:04:56.187Z,2.63
2022-08-04T07:05:31.843Z,2.60
2022-08-04T07:06:06.069Z,2.50
2022-08-04T07:06:49.261Z,2.03
2022-08-04T07:07:33.927Z,2.73
2022-08-04T07:08:16.553Z,2.63
2022-08-04T07:08:49.875Z,2.40
2022-08-04T07:09:22.379Z,2.80
2022-08-04T07:09:57.395Z,2.50
2022-08-04T07:10:31.056Z,2.60
2022-08-04T07:11:06.695Z,2.60
2022-08-04T07:11:44.623Z,2.30
2022-08-04T07:12:21.733Z,2.40
2022-08-04T07:12:54.370Z,2.50
2022-08-04T07:13:30.423Z,2.60
2022-08-04T07:14:03.737Z,2.60
2022-08-04T07:14:36.681Z,2.50
2022-08-04T07:15:14.356Z,2.90
2022-08-04T07:15:48.132Z,2.60
2022-08-04T07:16:30.569Z,2.50
2022-08-04T07:17:08.102Z,2.73
2022-08-04T07:17:42.331Z,2.60
2022-08-04T07:18:14.867Z,2.90
2022-08-04T07:18:50.043Z,2.73
2022-08-04T07:19:22.403Z,2.40
2022-08-04T07:19:55.039Z,2.70
2022-08-04T07:20:34.508Z,2.53
2022-08-04T07:21:08.506Z,2.33
2022-08-04T07:21:41.065Z,2.67
2022-08-04T07:22:36.242Z,2.63
2022-08-04T07:23:09.126Z,2.77
2022-08-04T07:23:48.574Z,2.70
2022-08-04T07:24:21.007Z,2.77
2022-08-04T07:24:58.305Z,2.87
2022-08-04T07:25:57.257Z,2.80
2022-08-04T07:26:30.768Z,2.23
2022-08-04T07:27:04.037Z,2.50
2022-08-04T07:27:48.202Z,3.20
2022-08-04T07:28:22.603Z,2.77
2022-08-04T07:28:59.711Z,2.83
2022-08-04T07:29:32.281Z,3.13
2022-08-04T07:30:06.582Z,2.43
2022-08-04T07:30:42.839Z,2.70
2022-08-04T07:31:34.492Z,2.30
2022-08-04T07:32:11.190Z,2.90
2022-08-04T07:32:46.286Z,2.40
2022-08-04T07:33:22.105Z,2.80
2022-08-04T07:34:17.208Z,3.17
2022-08-04T07:34:52.630Z,2.60
2022-08-04T07:36:05.228Z,3.27
2022-08-04T07:36:21.434Z,2.53
2022-08-04T07:37:01.747Z,2.60
2022-08-04T07:37:40.028Z,2.57
2022-08-04T07:38:13.351Z,2.33
2022-08-04T07:38:53.956Z,2.77
2022-08-04T07:39:31.528Z,2.60
2022-08-04T07:40:22.996Z,2.80
2022-08-04T07:40:55.938Z,2.83
2022-08-04T07:41:38.298Z,2.53
2022-08-04T07:42:10.922Z,2.47
2022-08-04T07:42:46.961Z,2.43
2022-08-04T07:43:19.555Z,2.40
2022-08-04T07:43:52.288Z,2.03
2022-08-04T07:44:27.843Z,2.57
2022-08-04T07:45:00.891Z,2.30
2022-08-04T07:45:33.513Z,2.33
2022-08-04T07:46:08.571Z,2.50
2022-08-04T07:46:41.063Z,2.00
2022-08-04T07:47:16.466Z,2.43
2022-08-04T07:48:04.816Z,2.43
2022-08-04T07:48:38.901Z,2.63
2022-08-04T07:49:13.944Z,2.50
2022-08-04T07:50:08.180Z,2.70
2022-08-04T07:50:45.983Z,3.10
2022-08-04T07:51:18.592Z,2.43
2022-08-04T07:51:51.072Z,2.50
2022-08-04T07:52:26.929Z,2.50
2022-08-04T07:53:53.325Z,2.70
2022-08-04T07:53:57.845Z,2.37
2022-08-04T07:54:30.521Z,2.80
2022-08-04T07:55:03.223Z,2.43
2022-08-04T07:55:38.260Z,2.37
2022-08-04T07:56:11.502Z,2.30
2022-08-04T07:56:44.253Z,2.60
2022-08-04T07:57:39.821Z,2.67
2022-08-04T07:58:13.275Z,3.07
2022-08-04T07:58:48.523Z,2.30
2022-08-04T07:59:22.908Z,2.90
2022-08-04T07:59:55.315Z,2.37
2022-08-04T08:00:30.404Z,2.50
2022-08-04T08:01:02.799Z,2.43
2022-08-04T08:01:36.384Z,2.57
2022-08-04T08:02:11.786Z,2.30
2022-08-04T08:02:46.425Z,2.37
2022-08-04T08:03:21.910Z,2.30
2022-08-04T08:03:59.418Z,2.40
2022-08-04T08:04:32.529Z,2.47
2022-08-04T08:05:08.275Z,2.57
2022-08-04T08:05:54.716Z,2.47
2022-08-04T08:06:43.184Z,2.70
2022-08-04T08:07:15.918Z,2.50
2022-08-04T08:07:54.562Z,2.23
2022-08-04T08:08:27.430Z,2.77
2022-08-04T08:09:13.510Z,2.90
2022-08-04T08:09:46.848Z,2.70
2022-08-04T08:10:19.594Z,2.57
2022-08-04T08:10:55.156Z,2.97
2022-08-04T08:12:37.143Z,2.33
2022-08-04T08:12:37.805Z,2.47
2022-08-04T08:13:16.146Z,2.53
2022-08-04T08:13:51.397Z,2.57
2022-08-04T08:14:24.000Z,2.67
2022-08-04T08:14:58.151Z,2.93
2022-08-04T08:15:33.510Z,2.73
2022-08-04T08:16:06.606Z,2.60
2022-08-04T08:16:39.186Z,2.60
2022-08-04T08:17:14.269Z,2.57
2022-08-04T08:17:58.731Z,2.50
2022-08-04T08:18:35.408Z,2.70
2022-08-04T08:19:07.940Z,2.50
2022-08-04T08:19:40.482Z,2.60
2022-08-04T08:20:15.712Z,2.50
2022-08-04T08:21:02.805Z,2.33
2022-08-04T08:21:35.462Z,2.40
2022-08-04T08:22:30.700Z,2.60
2022-08-04T08:23:03.765Z,2.70
2022-08-04T08:23:39.024Z,3.07
2022-08-04T08:24:14.197Z,2.93
2022-08-04T08:24:49.278Z,2.40
2022-08-04T08:25:21.678Z,2.63
2022-08-04T08:25:57.510Z,2.70
2022-08-04T08:26:31.304Z,2.60
2022-08-04T08:27:07.441Z,2.80
2022-08-04T08:27:39.832Z,2.43
2022-08-04T08:28:31.315Z,2.70
2022-08-04T08:29:04.147Z,2.50
2022-08-04T08:29:39.370Z,2.40
2022-08-04T08:30:12.827Z,2.63
2022-08-04T08:30:52.898Z,2.77
2022-08-04T08:31:57.338Z,2.73
2022-08-04T08:32:20.602Z,2.50
2022-08-04T08:32:55.555Z,2.60
2022-08-04T08:33:27.974Z,2.23
2022-08-04T08:34:03.035Z,2.57
2022-08-04T08:34:35.544Z,2.60
2022-08-04T08:35:11.451Z,2.60
2022-08-04T08:35:53.776Z,2.67
2022-08-04T08:36:36.059Z,2.50
2022-08-04T08:37:13.834Z,2.50
2022-08-04T08:37:51.717Z,2.50
2022-08-04T08:38:29.776Z,2.50
2022-08-04T08:39:08.431Z,2.57
2022-08-04T08:39:50.698Z,2.50
2022-08-04T08:40:41.134Z,2.90
2022-08-04T08:41:43.540Z,2.90
2022-08-04T08:42:32.841Z,2.60
2022-08-04T08:44:05.122Z,2.60
2022-08-04T08:45:10.283Z,2.80
2022-08-04T08:46:13.494Z,2.73
2022-08-04T08:46:58.684Z,2.50
2022-08-04T08:48:05.078Z,2.43
2022-08-04T08:49:03.424Z,2.50
2022-08-04T08:50:01.759Z,2.67
2022-08-04T08:51:00.612Z,2.47
2022-08-04T08:51:53.058Z,2.40
2022-08-04T08:52:56.333Z,2.63
2022-08-04T08:53:37.211Z,2.63
2022-08-04T08:54:45.146Z,2.10
2022-08-04T08:55:31.634Z,2.63
2022-08-04T08:56:16.099Z,2.67
2022-08-04T08:56:57.990Z,2.67
2022-08-04T08:57:59.348Z,2.50
2022-08-04T08:58:46.378Z,2.90
2022-08-04T08:59:41.066Z,2.60
2022-08-04T09:00:18.958Z,2.90
2022-08-04T09:00:58.514Z,2.83
2022-08-04T09:01:43.438Z,2.60
2022-08-04T09:02:37.558Z,2.80
2022-08-04T09:03:40.387Z,2.50
2022-08-04T09:04:36.216Z,2.13
2022-08-04T09:05:24.690Z,2.10
2022-08-04T09:06:29.572Z,2.77
2022-08-04T09:07:37.437Z,3.00
2022-08-04T09:08:22.799Z,2.80
2022-08-04T09:09:07.034Z,2.17
2022-08-04T09:10:06.535Z,3.00
2022-08-04T09:10:45.849Z,2.83
2022-08-04T09:11:21.334Z,2.20
2022-08-04T09:12:05.728Z,2.50
2022-08-04T09:12:45.383Z,2.43
2022-08-04T09:13:26.841Z,2.27
2022-08-04T09:14:05.922Z,2.90
2022-08-04T09:14:47.728Z,2.87
2022-08-04T09:15:29.102Z,2.30
2022-08-04T09:16:09.342Z,2.07
2022-08-04T09:16:47.399Z,2.07
2022-08-04T09:17:26.576Z,1.70
2022-08-04T09:18:03.668Z,2.20
2022-08-04T09:18:45.051Z,2.00
2022-08-04T09:19:22.935Z,2.20
2022-08-04T09:20:19.544Z,2.17
2022-08-04T09:20:56.816Z,1.97
2022-08-04T09:21:36.945Z,1.90
2022-08-04T09:22:14.334Z,1.80
2022-08-04T09:22:53.724Z,2.10
2022-08-04T09:23:31.359Z,1.97
2022-08-04T09:24:35.241Z,2.00
2022-08-04T09:25:09.377Z,2.20
2022-08-04T09:25:52.791Z,2.13
2022-08-04T09:26:30.264Z,2.00
2022-08-04T09:27:06.273Z,2.10